Time;durP1;ratioP1;P1;durP2;ratioP2;P2;SDS_P1;SDS_P2;PMS_P1;PMS_P2;Temp;Humidity;BMP_temperature;BMP_pressure;BME280_temperature;BME280_humidity;BME280_pressure;Samples;Min_cycle;Max_cycle;Signal;HPM_P1;HPM_P2
2022/03/11 00:01:00;;;;;;;3.50;2.63;;;16.30;45.40;;;;;;5098662;28;20192;-17
2022/03/11 00:03:26;;;;;;;5.67;2.87;;;16.30;45.40;;;;;;5098916;28;20170;-16
2022/03/11 00:05:52;;;;;;;3.70;2.60;;;16.30;45.40;;;;;;5099210;28;20214;-19
2022/03/11 00:08:18;;;;;;;3.50;2.80;;;16.20;45.30;;;;;;5098884;28;20211;-16
2022/03/11 00:10:44;;;;;;;2.93;2.53;;;16.20;45.30;;;;;;5099049;28;20231;-18
2022/03/11 00:13:12;;;;;;;4.20;2.90;;;16.30;45.30;;;;;;5099136;28;20149;-18
2022/03/11 00:15:38;;;;;;;3.87;2.70;;;16.30;45.40;;;;;;5098231;28;20175;-18
2022/03/11 00:18:04;;;;;;;2.90;2.60;;;16.20;45.30;;;;;;5097878;28;20187;-17
2022/03/11 00:20:31;;;;;;;3.23;2.47;;;16.20;45.40;;;;;;5098916;28;20160;-20
2022/03/11 00:22:58;;;;;;;3.47;2.47;;;16.20;45.40;;;;;;5098854;28;20169;-17
2022/03/11 00:25:24;;;;;;;2.33;2.10;;;16.20;45.40;;;;;;5099143;28;20566;-15
2022/03/11 00:27:51;;;;;;;4.37;2.50;;;16.20;45.40;;;;;;5099153;28;20209;-17
2022/03/11 00:30:16;;;;;;;3.03;2.70;;;16.20;45.40;;;;;;5098907;28;20184;-16
2022/03/11 00:32:43;;;;;;;3.17;2.67;;;16.20;45.30;;;;;;5097959;28;20166;-18
2022/03/11 00:35:11;;;;;;;3.20;2.57;;;16.20;45.40;;;;;;5097461;28;20178;-17
2022/03/11 00:37:38;;;;;;;3.20;2.37;;;16.20;45.40;;;;;;5099052;28;20242;-19
2022/03/11 00:40:04;;;;;;;3.57;2.50;;;16.20;45.30;;;;;;5098555;28;20172;-17
2022/03/11 00:42:31;;;;;;;2.73;2.37;;;16.20;45.30;;;;;;5097793;28;20186;-18
2022/03/11 00:44:56;;;;;;;3.37;2.40;;;16.20;45.40;;;;;;5099431;28;20163;-15
2022/03/11 00:47:22;;;;;;;3.40;2.60;;;16.20;45.70;;;;;;5097696;28;20462;-21
2022/03/11 00:49:47;;;;;;;2.73;2.50;;;16.20;45.40;;;;;;5099039;28;20465;-19
2022/03/11 00:52:14;;;;;;;3.43;2.50;;;16.20;45.70;;;;;;5098174;28;20574;-19
2022/03/11 00:54:39;;;;;;;3.00;2.20;;;16.20;45.40;;;;;;5097727;28;20173;-17
2022/03/11 00:57:05;;;;;;;2.73;2.20;;;16.10;45.30;;;;;;5097935;28;20168;-17
2022/03/11 00:59:30;;;;;;;2.87;2.40;;;16.10;45.30;;;;;;5097635;28;20269;-16
2022/03/11 01:01:56;;;;;;;3.43;2.30;;;16.10;45.40;;;;;;5097347;28;20203;-17
2022/03/11 01:04:22;;;;;;;3.17;2.57;;;16.10;45.40;;;;;;5098310;28;20175;-15
2022/03/11 01:06:48;;;;;;;2.60;2.20;;;16.10;45.40;;;;;;5097924;28;20576;-18
2022/03/11 01:09:14;;;;;;;2.60;2.23;;;16.10;45.40;;;;;;5098255;28;20548;-15
2022/03/11 01:11:39;;;;;;;3.40;2.20;;;16.10;45.40;;;;;;5098270;28;20605;-18
2022/03/11 01:14:05;;;;;;;2.67;2.20;;;16.10;45.40;;;;;;5097081;28;20230;-17
2022/03/11 01:16:31;;;;;;;4.20;2.40;;;16.10;45.40;;;;;;5099182;28;20289;-16
2022/03/11 01:18:57;;;;;;;3.07;2.60;;;16.10;45.40;;;;;;5097297;28;20423;-21
2022/03/11 01:21:23;;;;;;;2.90;2.30;;;16.10;45.40;;;;;;5097601;28;20182;-17
2022/03/11 01:23:49;;;;;;;2.77;2.30;;;16.10;45.40;;;;;;5097426;28;20176;-16
2022/03/11 01:26:16;;;;;;;2.80;2.30;;;16.10;45.40;;;;;;5097375;28;20303;-17
2022/03/11 01:28:43;;;;;;;2.73;2.37;;;16.10;45.40;;;;;;5096946;28;20232;-18
2022/03/11 01:31:11;;;;;;;2.30;2.10;;;16.10;45.40;;;;;;5096875;28;20198;-16
2022/03/11 01:33:38;;;;;;;2.77;2.30;;;16.10;45.40;;;;;;5096903;28;20175;-20
2022/03/11 01:36:04;;;;;;;2.80;2.30;;;16.10;45.40;;;;;;5097103;28;20270;-15
2022/03/11 01:38:30;;;;;;;2.50;2.00;;;16.10;45.50;;;;;;5097233;28;20176;-17
2022/03/11 01:40:55;;;;;;;2.67;2.00;;;16.00;45.40;;;;;;5097966;28;20163;-21
2022/03/11 01:43:21;;;;;;;3.07;2.20;;;16.00;45.40;;;;;;5097864;28;20178;-15
2022/03/11 01:45:47;;;;;;;2.90;2.40;;;16.00;45.40;;;;;;5097797;28;20660;-16
2022/03/11 01:48:13;;;;;;;2.13;1.93;;;16.00;45.40;;;;;;5098217;28;20504;-16
2022/03/11 01:50:40;;;;;;;3.17;2.23;;;16.00;45.40;;;;;;5097202;28;20297;-15
2022/03/11 01:53:11;;;;;;;3.03;2.20;;;16.00;45.40;;;;;;5097854;28;20187;-20
2022/03/11 01:55:38;;;;;;;2.47;2.03;;;16.00;45.40;;;;;;5096633;28;20599;-17
2022/03/11 01:58:05;;;;;;;2.43;2.10;;;16.00;45.40;;;;;;5098993;28;20157;-16
2022/03/11 02:00:34;;;;;;;2.33;1.87;;;16.00;45.40;;;;;;5101860;28;20164;-19
2022/03/11 02:03:00;;;;;;;2.67;2.03;;;16.00;45.50;;;;;;5101372;28;20175;-19
2022/03/11 02:05:28;;;;;;;2.40;2.10;;;16.00;45.40;;;;;;5101164;28;20171;-20
2022/03/11 02:07:57;;;;;;;2.37;1.93;;;16.00;45.40;;;;;;5101251;28;20236;-17
2022/03/11 02:10:23;;;;;;;3.47;2.13;;;16.00;45.40;;;;;;5101171;28;20555;-17
2022/03/11 02:12:49;;;;;;;2.73;2.10;;;15.90;45.50;;;;;;5100886;28;20286;-18
2022/03/11 02:15:16;;;;;;;2.97;2.20;;;15.90;45.40;;;;;;5101661;28;20808;-17
2022/03/11 02:17:41;;;;;;;2.77;2.20;;;15.90;45.50;;;;;;5100595;28;20206;-20
2022/03/11 02:20:07;;;;;;;2.73;2.33;;;15.90;45.50;;;;;;5101469;28;20170;-16
2022/03/11 02:22:37;;;;;;;3.00;2.30;;;15.90;45.40;;;;;;5101021;28;20197;-17
2022/03/11 02:25:06;;;;;;;2.70;2.23;;;15.90;45.50;;;;;;5101699;28;20175;-18
2022/03/11 02:27:35;;;;;;;2.93;2.30;;;15.90;45.50;;;;;;5101341;28;20181;-18
2022/03/11 02:30:02;;;;;;;2.10;1.83;;;15.90;45.50;;;;;;5101371;28;20584;-20
2022/03/11 02:32:28;;;;;;;2.73;2.00;;;15.90;45.50;;;;;;5100477;28;20203;-19
2022/03/11 02:34:54;;;;;;;2.30;2.07;;;15.90;45.50;;;;;;5101430;28;20150;-16
2022/03/11 02:37:20;;;;;;;3.40;1.87;;;15.90;45.50;;;;;;5101312;28;20153;-17
2022/03/11 02:39:45;;;;;;;2.70;2.10;;;15.90;45.50;;;;;;5100112;28;20176;-20
2022/03/11 02:42:11;;;;;;;2.43;2.03;;;15.90;45.50;;;;;;5090753;28;20167;-17
2022/03/11 02:44:37;;;;;;;2.50;2.20;;;15.90;45.50;;;;;;5100296;28;20194;-19
2022/03/11 02:47:04;;;;;;;2.20;1.80;;;15.90;45.60;;;;;;5098967;28;20528;-16
2022/03/11 02:49:29;;;;;;;2.27;1.90;;;15.90;45.60;;;;;;5100283;28;20170;-15
2022/03/11 02:51:56;;;;;;;2.17;1.90;;;15.90;45.60;;;;;;5099934;28;20163;-17
2022/03/11 02:54:25;;;;;;;2.70;1.93;;;15.90;45.60;;;;;;5099971;28;20526;-18
2022/03/11 02:56:54;;;;;;;3.93;1.90;;;15.90;45.50;;;;;;5100556;28;20648;-18
2022/03/11 02:59:20;;;;;;;2.27;2.00;;;15.90;45.50;;;;;;5099784;28;20179;-17
2022/03/11 03:01:46;;;;;;;2.47;2.00;;;15.80;45.40;;;;;;5100590;28;20155;-18
2022/03/11 03:04:12;;;;;;;2.40;2.20;;;15.80;45.50;;;;;;5099763;28;20228;-20
2022/03/11 03:06:38;;;;;;;2.73;2.20;;;15.80;45.50;;;;;;5100769;28;20193;-19
2022/03/11 03:09:07;;;;;;;2.00;1.80;;;15.80;45.50;;;;;;5100076;28;20167;-15
2022/03/11 03:11:33;;;;;;;2.40;1.80;;;15.80;45.50;;;;;;5100068;28;20504;-18
2022/03/11 03:13:59;;;;;;;3.10;1.90;;;15.80;45.60;;;;;;5100639;28;20167;-18
2022/03/11 03:16:25;;;;;;;2.23;2.03;;;15.80;45.60;;;;;;5099828;28;20629;-19
2022/03/11 03:18:52;;;;;;;2.73;1.97;;;15.80;45.60;;;;;;5100293;28;20700;-20
2022/03/11 03:21:17;;;;;;;2.40;1.90;;;15.80;45.60;;;;;;5099697;28;20198;-20
2022/03/11 03:23:43;;;;;;;2.50;1.93;;;15.80;45.60;;;;;;5099519;28;20184;-17
2022/03/11 03:26:09;;;;;;;2.00;1.80;;;15.80;45.60;;;;;;5100011;28;20231;-19
2022/03/11 03:28:34;;;;;;;2.77;2.20;;;15.80;45.60;;;;;;5100183;28;20465;-21
2022/03/11 03:31:00;;;;;;;2.63;1.97;;;15.80;45.60;;;;;;5099382;28;20214;-19
2022/03/11 03:33:26;;;;;;;3.00;2.17;;;15.70;45.50;;;;;;5099478;28;20160;-18
2022/03/11 03:35:52;;;;;;;2.90;2.10;;;15.80;45.50;;;;;;5098881;28;20174;-18
2022/03/11 03:38:17;;;;;;;2.70;2.10;;;15.80;45.50;;;;;;5099709;28;20544;-17
2022/03/11 03:40:43;;;;;;;2.97;2.00;;;15.70;45.50;;;;;;5100334;28;20168;-15
2022/03/11 03:43:11;;;;;;;2.20;1.90;;;15.70;45.50;;;;;;5099497;28;20178;-20
2022/03/11 03:45:37;;;;;;;2.40;1.90;;;15.70;45.50;;;;;;5099134;28;20174;-19
2022/03/11 03:48:03;;;;;;;2.97;2.20;;;15.70;45.50;;;;;;5100119;28;20173;-18
2022/03/11 03:50:29;;;;;;;2.77;2.30;;;15.70;45.50;;;;;;5099760;28;20267;-19
2022/03/11 03:52:55;;;;;;;2.93;2.27;;;15.70;45.50;;;;;;5098230;28;20167;-20
2022/03/11 03:55:21;;;;;;;3.77;2.50;;;15.70;45.50;;;;;;5099821;28;20210;-16
2022/03/11 03:57:46;;;;;;;2.83;2.10;;;15.70;45.50;;;;;;5099068;28;20618;-18
2022/03/11 04:00:12;;;;;;;2.87;2.37;;;15.70;45.40;;;;;;5099418;28;20584;-21
2022/03/11 04:02:47;;;;;;;2.70;2.20;;;15.70;45.50;;;;;;5100128;28;20171;-20
2022/03/11 04:05:14;;;;;;;2.80;2.40;;;15.70;45.50;;;;;;5098554;28;20186;-16
2022/03/11 04:07:44;;;;;;;2.43;2.23;;;15.70;45.40;;;;;;5099214;28;20259;-18
2022/03/11 04:10:11;;;;;;;2.83;2.20;;;15.70;45.40;;;;;;5099304;28;20287;-18
2022/03/11 04:12:39;;;;;;;2.43;2.20;;;15.60;45.30;;;;;;5099580;28;20167;-18
2022/03/11 04:15:06;;;;;;;2.73;2.40;;;15.60;45.40;;;;;;5098571;28;20186;-14
2022/03/11 04:17:32;;;;;;;2.80;2.40;;;15.60;45.40;;;;;;5099370;28;20573;-16
2022/03/11 04:19:59;;;;;;;3.23;2.20;;;15.60;45.30;;;;;;5099143;28;20564;-17
2022/03/11 04:22:25;;;;;;;2.80;2.20;;;15.60;45.30;;;;;;5098782;28;20163;-20
2022/03/11 04:24:51;;;;;;;4.00;2.53;;;15.60;45.30;;;;;;5098369;28;20190;-19
2022/03/11 04:27:17;;;;;;;3.90;2.50;;;15.60;45.30;;;;;;5099011;28;20172;-17
2022/03/11 04:29:43;;;;;;;3.33;2.33;;;15.60;45.30;;;;;;5098852;28;20203;-16
2022/03/11 04:32:08;;;;;;;3.57;2.73;;;15.60;45.30;;;;;;5098631;28;20447;-16
2022/03/11 04:34:34;;;;;;;4.03;2.33;;;15.50;45.20;;;;;;5098548;28;20175;-17
2022/03/11 04:37:02;;;;;;;3.03;2.50;;;15.50;45.20;;;;;;5098440;28;20508;-20
2022/03/11 04:39:28;;;;;;;3.47;2.97;;;15.50;45.20;;;;;;5097839;28;20192;-17
2022/03/11 04:41:54;;;;;;;4.53;2.80;;;15.50;45.20;;;;;;5098384;28;20172;-19
2022/03/11 04:44:20;;;;;;;3.57;2.47;;;15.50;45.20;;;;;;5098783;28;20176;-16
2022/03/11 04:46:48;;;;;;;4.30;2.93;;;15.50;45.20;;;;;;5098202;28;20197;-17
2022/03/11 04:49:14;;;;;;;4.30;2.73;;;15.50;45.20;;;;;;5098039;28;20223;-17
2022/03/11 04:51:39;;;;;;;4.27;2.70;;;15.50;45.10;;;;;;5097109;28;20216;-18
2022/03/11 04:54:06;;;;;;;3.83;2.70;;;15.50;45.00;;;;;;5097805;28;20281;-18
2022/03/11 04:56:34;;;;;;;2.90;2.50;;;15.50;45.00;;;;;;5097436;28;20207;-22
2022/03/11 04:58:59;;;;;;;3.40;2.83;;;15.50;45.00;;;;;;5098076;28;20161;-16
2022/03/11 05:01:26;;;;;;;3.80;2.63;;;15.50;45.00;;;;;;5097720;28;20243;-19
2022/03/11 05:03:51;;;;;;;4.30;3.17;;;15.50;45.00;;;;;;5096895;28;20198;-18
2022/03/11 05:06:18;;;;;;;3.63;2.90;;;15.40;44.90;;;;;;5096551;28;20202;-18
2022/03/11 05:08:43;;;;;;;3.87;2.87;;;15.40;44.80;;;;;;5097438;28;20617;-19
2022/03/11 05:11:10;;;;;;;3.33;2.90;;;15.40;44.80;;;;;;5097458;28;20298;-14
2022/03/11 05:13:35;;;;;;;3.87;2.70;;;15.40;44.80;;;;;;5097187;28;20224;-22
2022/03/11 05:16:07;;;;;;;3.80;2.97;;;15.40;44.80;;;;;;5097823;28;20243;-22
2022/03/11 05:18:32;;;;;;;3.60;3.20;;;15.40;44.80;;;;;;5097317;28;20195;-17
2022/03/11 05:20:58;;;;;;;3.43;2.87;;;15.40;44.80;;;;;;5097333;28;20200;-18
2022/03/11 05:23:23;;;;;;;3.60;2.93;;;15.40;44.80;;;;;;5096091;28;20176;-17
2022/03/11 05:25:52;;;;;;;4.60;3.27;;;15.40;44.80;;;;;;5097203;28;20174;-20
2022/03/11 05:28:18;;;;;;;3.93;3.20;;;15.40;44.80;;;;;;5097436;28;20172;-17
2022/03/11 05:30:43;;;;;;;4.20;3.33;;;15.40;44.80;;;;;;5097336;28;20195;-15
2022/03/11 05:33:09;;;;;;;3.80;2.97;;;15.40;44.80;;;;;;5096274;28;20196;-14
2022/03/11 05:35:35;;;;;;;5.13;3.37;;;15.30;44.70;;;;;;5097048;28;20179;-16
2022/03/11 05:38:00;;;;;;;4.57;3.33;;;15.30;44.70;;;;;;5097295;28;20167;-17
2022/03/11 05:40:27;;;;;;;3.60;3.20;;;15.30;44.70;;;;;;5096412;28;20179;-17
2022/03/11 05:42:55;;;;;;;3.53;2.90;;;15.30;44.70;;;;;;5096501;28;20193;-19
2022/03/11 05:45:21;;;;;;;4.13;3.23;;;15.30;44.70;;;;;;5097460;28;20566;-18
2022/03/11 05:47:47;;;;;;;4.20;3.10;;;15.30;44.70;;;;;;5096765;28;20174;-17
2022/03/11 05:50:12;;;;;;;3.43;3.13;;;15.30;44.70;;;;;;5097077;28;20222;-19
2022/03/11 05:52:40;;;;;;;3.80;3.10;;;15.30;44.70;;;;;;5096233;28;20265;-15
2022/03/11 05:55:07;;;;;;;3.77;2.93;;;15.30;44.70;;;;;;5096534;28;20174;-17
2022/03/11 05:57:34;;;;;;;3.53;3.20;;;15.30;44.70;;;;;;5096181;28;20199;-19
2022/03/11 05:59:59;;;;;;;4.20;3.30;;;15.30;44.80;;;;;;5094697;28;20775;-18
2022/03/11 06:02:25;;;;;;;3.67;3.07;;;15.30;44.80;;;;;;5095256;28;20186;-17
2022/03/11 06:04:51;;;;;;;3.70;3.30;;;15.30;44.80;;;;;;5095995;28;20193;-17
2022/03/11 06:07:17;;;;;;;3.57;2.93;;;15.30;44.70;;;;;;5095539;28;20179;-19
2022/03/11 06:09:43;;;;;;;3.87;3.13;;;15.20;44.70;;;;;;5095526;28;20202;-20
2022/03/11 06:12:09;;;;;;;6.97;3.20;;;15.30;44.70;;;;;;5095780;28;20175;-19
2022/03/11 06:14:34;;;;;;;4.50;3.80;;;15.20;44.60;;;;;;5095485;28;20178;-16
2022/03/11 06:17:00;;;;;;;5.00;3.50;;;15.20;44.60;;;;;;5095227;28;20186;-17
2022/03/11 06:19:26;;;;;;;4.30;3.10;;;15.20;44.60;;;;;;5095779;28;20171;-18
2022/03/11 06:21:52;;;;;;;3.87;3.37;;;15.20;44.60;;;;;;5096268;28;20189;-16
2022/03/11 06:24:17;;;;;;;3.80;3.10;;;15.20;44.60;;;;;;5095720;28;20187;-19
2022/03/11 06:26:43;;;;;;;4.17;3.50;;;15.20;44.60;;;;;;5095779;28;20167;-16
2022/03/11 06:29:10;;;;;;;3.77;3.30;;;15.30;44.60;;;;;;5094693;28;20789;-16
2022/03/11 06:31:37;;;;;;;4.83;3.50;;;15.30;44.50;;;;;;5095048;28;20199;-18
2022/03/11 06:34:03;;;;;;;4.03;3.40;;;15.30;44.50;;;;;;5094935;28;20203;-16
2022/03/11 06:36:29;;;;;;;4.57;3.77;;;15.30;44.50;;;;;;5094929;28;20204;-16
2022/03/11 06:38:55;;;;;;;4.87;3.83;;;15.30;44.50;;;;;;5095268;28;20187;-20
2022/03/11 06:41:22;;;;;;;5.70;3.60;;;15.40;44.40;;;;;;5095311;28;20147;-19
2022/03/11 06:43:48;;;;;;;4.30;3.77;;;15.50;44.20;;;;;;5095464;28;20569;-18
2022/03/11 06:46:14;;;;;;;4.67;4.17;;;15.70;44.40;;;;;;5098165;28;20204;-18
2022/03/11 06:48:40;;;;;;;4.83;4.00;;;15.80;43.80;;;;;;5098523;28;20175;-14
2022/03/11 06:51:06;;;;;;;4.73;3.83;;;16.00;43.60;;;;;;5099450;28;20273;-20
2022/03/11 06:53:32;;;;;;;4.47;4.07;;;16.10;43.50;;;;;;5098075;28;20208;-21
2022/03/11 06:56:00;;;;;;;4.40;4.00;;;16.10;43.80;;;;;;5097840;28;20183;-19
2022/03/11 06:58:29;;;;;;;4.70;4.20;;;16.20;43.30;;;;;;5097523;28;20189;-15
2022/03/11 07:00:55;;;;;;;6.23;4.30;;;16.30;43.10;;;;;;5098269;28;20221;-19
2022/03/11 07:03:21;;;;;;;5.13;4.50;;;16.40;42.90;;;;;;5096208;28;20187;-17
2022/03/11 07:05:47;;;;;;;4.90;4.40;;;16.50;42.90;;;;;;5097603;28;20247;-21
2022/03/11 07:08:14;;;;;;;4.83;4.40;;;16.50;42.60;;;;;;5097504;28;20179;-22
2022/03/11 07:10:40;;;;;;;4.83;4.30;;;16.60;42.50;;;;;;5097429;28;20206;-21
2022/03/11 07:13:06;;;;;;;4.57;4.13;;;16.70;42.50;;;;;;5097398;28;20183;-18
2022/03/11 07:15:31;;;;;;;4.93;4.43;;;16.70;42.40;;;;;;5097410;28;20171;-20
2022/03/11 07:17:58;;;;;;;4.90;4.40;;;16.80;42.30;;;;;;5097111;28;20194;-23
2022/03/11 07:20:23;;;;;;;5.13;4.67;;;16.90;42.20;;;;;;5097162;28;20174;-24
2022/03/11 07:22:49;;;;;;;5.07;4.57;;;17.00;42.10;;;;;;5097911;28;20154;-19
2022/03/11 07:25:16;;;;;;;5.23;4.50;;;17.10;42.00;;;;;;5097916;28;20154;-22
2022/03/11 07:27:45;;;;;;;4.27;3.87;;;17.20;41.90;;;;;;5098130;28;20175;-21
2022/03/11 07:30:11;;;;;;;5.03;4.50;;;17.30;41.90;;;;;;5095981;28;20218;-17
2022/03/11 07:32:41;;;;;;;5.33;4.53;;;17.40;41.90;;;;;;5097948;28;20211;-19
2022/03/11 07:35:09;;;;;;;5.27;4.77;;;17.50;41.70;;;;;;5096673;28;20419;-20
2022/03/11 07:37:36;;;;;;;5.23;4.73;;;17.60;41.70;;;;;;5096415;28;20171;-21
2022/03/11 07:40:03;;;;;;;4.77;4.27;;;17.60;41.50;;;;;;5096946;28;20175;-21
2022/03/11 07:42:29;;;;;;;4.73;4.10;;;17.70;41.50;;;;;;5095807;28;20189;-18
2022/03/11 07:44:55;;;;;;;4.60;4.20;;;17.80;41.30;;;;;;5094857;28;20174;-22
2022/03/11 07:47:22;;;;;;;4.87;4.10;;;17.90;41.30;;;;;;5097075;28;20174;-20
2022/03/11 07:49:47;;;;;;;5.17;4.00;;;18.00;41.50;;;;;;5097961;28;20225;-22
2022/03/11 07:52:15;;;;;;;8.23;4.67;;;18.10;41.60;;;;;;5096742;28;20716;-19
2022/03/11 07:54:45;;;;;;;4.67;4.17;;;18.20;41.60;;;;;;5096076;28;20187;-19
2022/03/11 07:57:12;;;;;;;4.83;4.13;;;18.30;41.70;;;;;;5097347;28;20163;-19
2022/03/11 07:59:41;;;;;;;4.67;4.03;;;18.40;41.80;;;;;;5097079;28;20159;-23
2022/03/11 08:02:07;;;;;;;4.90;4.37;;;18.50;41.90;;;;;;5095666;28;20202;-21
2022/03/11 08:04:33;;;;;;;4.97;4.40;;;18.50;41.80;;;;;;5096143;28;20479;-18
2022/03/11 08:07:06;;;;;;;5.17;4.40;;;18.60;41.70;;;;;;5097296;28;20171;-20
2022/03/11 08:09:33;;;;;;;5.83;4.23;;;18.70;41.70;;;;;;5095769;28;20564;-21
2022/03/11 08:12:00;;;;;;;5.50;5.00;;;18.90;41.70;;;;;;5096470;28;20524;-21
2022/03/11 08:14:26;;;;;;;5.00;4.60;;;18.90;41.50;;;;;;5096698;28;20185;-18
2022/03/11 08:16:52;;;;;;;5.57;5.00;;;19.00;41.40;;;;;;5095597;28;20194;-22
2022/03/11 08:19:17;;;;;;;6.07;5.30;;;19.10;41.30;;;;;;5095850;28;20243;-21
2022/03/11 08:21:45;;;;;;;8.23;5.27;;;19.10;41.20;;;;;;5096511;28;20186;-22
2022/03/11 08:24:11;;;;;;;6.17;4.70;;;19.20;41.20;;;;;;5096743;28;20178;-24
2022/03/11 08:26:37;;;;;;;6.67;5.27;;;19.20;41.20;;;;;;5095170;28;20166;-17
2022/03/11 08:29:03;;;;;;;7.97;5.10;;;19.30;41.10;;;;;;5097448;28;20592;-20
2022/03/11 08:31:29;;;;;;;6.80;5.40;;;19.30;41.00;;;;;;5095907;28;20238;-18
2022/03/11 08:33:55;;;;;;;8.87;5.70;;;19.40;40.90;;;;;;5097039;28;20186;-24
2022/03/11 08:36:20;;;;;;;5.67;5.07;;;19.40;40.80;;;;;;5096829;28;20167;-23
2022/03/11 08:38:46;;;;;;;7.33;5.50;;;19.50;40.90;;;;;;5095547;28;20184;-22
2022/03/11 08:41:12;;;;;;;7.97;5.57;;;19.50;40.90;;;;;;5095573;28;20206;-23
2022/03/11 08:43:38;;;;;;;5.97;5.37;;;19.60;40.90;;;;;;5096125;28;20487;-23
2022/03/11 08:46:09;;;;;;;7.37;5.40;;;19.60;40.80;;;;;;5096329;28;20182;-21
2022/03/11 08:48:36;;;;;;;7.23;5.30;;;19.70;40.80;;;;;;5095801;28;20163;-22
2022/03/11 08:51:03;;;;;;;8.40;5.73;;;19.70;40.70;;;;;;5096070;28;20233;-23
2022/03/11 08:53:29;;;;;;;10.90;5.53;;;19.70;40.60;;;;;;5096116;28;20181;-21
2022/03/11 08:55:55;;;;;;;11.53;5.67;;;19.90;40.70;;;;;;5096138;28;20530;-21
2022/03/11 08:58:20;;;;;;;8.67;6.13;;;19.90;40.50;;;;;;5096019;28;20179;-22
2022/03/11 09:00:46;;;;;;;7.17;6.07;;;19.90;40.50;;;;;;5096107;28;20244;-20
2022/03/11 09:03:12;;;;;;;11.63;6.47;;;20.10;40.50;;;;;;5094960;28;20179;-19
2022/03/11 09:05:39;;;;;;;6.93;6.03;;;20.00;40.30;;;;;;5096143;28;20243;-18
2022/03/11 09:08:07;;;;;;;9.53;6.50;;;20.10;40.30;;;;;;5095641;28;20178;-21
2022/03/11 09:10:34;;;;;;;11.17;6.80;;;20.20;40.00;;;;;;5094605;28;20206;-21
2022/03/11 09:13:00;;;;;;;11.57;6.87;;;20.20;39.90;;;;;;5095512;28;20179;-23
2022/03/11 09:15:26;;;;;;;7.57;6.77;;;20.20;39.70;;;;;;5094887;28;20582;-23
2022/03/11 09:17:52;;;;;;;7.13;6.43;;;20.40;39.70;;;;;;5094636;28;20190;-20
2022/03/11 09:20:17;;;;;;;9.23;6.47;;;20.40;39.60;;;;;;5094610;28;20187;-22
2022/03/11 09:22:43;;;;;;;9.13;6.17;;;20.40;39.50;;;;;;5095474;28;20270;-21
2022/03/11 09:25:11;;;;;;;8.57;6.43;;;20.50;39.40;;;;;;5095301;28;20201;-22
2022/03/11 09:27:39;;;;;;;7.83;6.20;;;20.30;39.30;;;;;;5095494;28;20174;-24
2022/03/11 09:30:07;;;;;;;7.43;6.30;;;20.40;39.20;;;;;;5094248;28;20209;-21
2022/03/11 09:32:34;;;;;;;8.07;6.73;;;20.40;39.20;;;;;;5095786;28;20155;-21
2022/03/11 09:34:59;;;;;;;9.73;6.40;;;20.10;39.10;;;;;;5094415;28;20186;-22
2022/03/11 09:37:27;;;;;;;9.17;7.03;;;19.80;39.20;;;;;;5095441;28;20211;-24
2022/03/11 09:39:54;;;;;;;7.60;6.80;;;19.50;39.60;;;;;;5094141;28;20175;-18
2022/03/11 09:42:20;;;;;;;7.53;6.73;;;19.20;39.90;;;;;;5093923;28;20559;-23
2022/03/11 09:44:54;;;;;;;7.70;6.57;;;18.90;40.10;;;;;;5095796;28;20174;-24
2022/03/11 09:47:22;;;;;;;7.40;6.00;;;18.70;40.50;;;;;;5095090;28;20564;-23
2022/03/11 09:49:50;;;;;;;7.73;5.93;;;18.60;40.70;;;;;;5094856;28;20205;-20
2022/03/11 09:52:17;;;;;;;6.80;6.03;;;18.50;40.80;;;;;;5093569;28;20246;-21
2022/03/11 09:54:45;;;;;;;7.53;6.73;;;18.40;40.90;;;;;;5094336;28;20181;-21
2022/03/11 09:57:23;;;;;;;7.93;6.43;;;18.30;41.00;;;;;;5095292;28;20174;-23
2022/03/11 09:59:56;;;;;;;7.20;6.07;;;18.30;41.10;;;;;;5095176;28;20238;-22
2022/03/11 10:02:22;;;;;;;7.53;6.30;;;18.30;41.30;;;;;;5093855;28;20190;-19
2022/03/11 10:04:53;;;;;;;7.83;6.20;;;18.20;41.40;;;;;;5095051;28;20175;-20
2022/03/11 10:07:27;;;;;;;9.80;6.10;;;18.20;41.60;;;;;;5095298;28;20151;-22
2022/03/11 10:09:54;;;;;;;7.90;6.00;;;18.20;41.70;;;;;;5094491;28;20459;-20
2022/03/11 10:12:30;;;;;;;7.97;5.67;;;18.10;41.70;;;;;;5094645;28;20183;-23
2022/03/11 10:15:01;;;;;;;6.60;5.93;;;18.10;41.70;;;;;;5093718;28;20171;-21
2022/03/11 10:17:36;;;;;;;7.83;6.03;;;18.10;41.80;;;;;;5093149;28;20190;-22
2022/03/11 10:20:06;;;;;;;7.67;6.10;;;18.10;41.80;;;;;;5097261;28;20309;-23
2022/03/11 10:22:32;;;;;;;6.77;5.93;;;18.10;41.80;;;;;;5099290;28;20166;-22
2022/03/11 10:25:27;;;;;;;6.97;5.77;;;18.10;41.80;;;;;;5098225;28;20422;-21
2022/03/11 10:28:02;;;;;;;9.03;5.77;;;18.10;41.80;;;;;;5095968;28;20195;-23
2022/03/11 10:30:33;;;;;;;8.07;6.07;;;18.10;41.80;;;;;;5097345;28;20224;-20
2022/03/11 10:33:03;;;;;;;7.67;6.33;;;18.10;41.90;;;;;;5096805;28;20705;-20
2022/03/11 10:35:37;;;;;;;9.37;6.00;;;18.00;41.90;;;;;;5097433;28;20629;-21
2022/03/11 10:38:08;;;;;;;10.23;6.40;;;18.00;41.90;;;;;;5098103;28;20273;-21
2022/03/11 10:40:39;;;;;;;7.43;6.23;;;18.00;41.70;;;;;;5097837;28;20677;-23
2022/03/11 10:43:17;;;;;;;7.23;6.37;;;18.00;41.80;;;;;;5096928;28;20612;-21
2022/03/11 10:45:55;;;;;;;8.10;6.63;;;18.00;41.80;;;;;;5097791;28;20177;-24
2022/03/11 10:48:42;;;;;;;7.73;6.23;;;18.00;41.70;;;;;;5097712;28;20704;-20
2022/03/11 10:51:31;;;;;;;8.30;6.47;;;18.00;41.60;;;;;;5097607;28;20266;-22
2022/03/11 10:53:59;;;;;;;7.33;6.00;;;18.00;41.70;;;;;;5097203;28;20171;-21
2022/03/11 10:56:36;;;;;;;7.57;6.03;;;18.00;41.70;;;;;;5097262;28;20171;-23
2022/03/11 10:59:14;;;;;;;8.00;6.17;;;17.90;41.60;;;;;;5097664;28;20261;-20
2022/03/11 11:01:44;;;;;;;6.80;5.90;;;17.90;41.60;;;;;;5097323;28;20243;-22
2022/03/11 11:04:13;;;;;;;8.50;6.53;;;18.00;41.70;;;;;;5096012;28;20248;-19
2022/03/11 11:06:39;;;;;;;9.80;7.10;;;17.90;41.60;;;;;;5097750;28;20217;-19
2022/03/11 11:09:07;;;;;;;9.07;7.07;;;17.90;41.50;;;;;;5097894;28;20178;-21
2022/03/11 11:11:34;;;;;;;9.20;7.20;;;17.90;41.50;;;;;;5096295;28;20263;-20
2022/03/11 11:14:04;;;;;;;9.77;8.13;;;17.90;41.40;;;;;;5095760;28;20178;-21
2022/03/11 11:16:31;;;;;;;12.13;8.67;;;17.80;41.10;;;;;;5091978;28;20172;-19
2022/03/11 11:18:59;;;;;;;11.33;8.67;;;17.80;41.00;;;;;;5076002;28;20268;-19
2022/03/11 11:21:26;;;;;;;14.20;9.43;;;17.80;41.00;;;;;;5084653;28;20178;-17
2022/03/11 11:23:56;;;;;;;14.77;10.17;;;17.80;41.00;;;;;;5096732;28;20190;-16
2022/03/11 11:26:23;;;;;;;11.67;8.80;;;17.80;41.00;;;;;;5096314;28;20185;-18
2022/03/11 11:28:55;;;;;;;13.70;9.93;;;17.80;41.00;;;;;;5096036;28;20171;-16
2022/03/11 11:31:22;;;;;;;11.60;9.23;;;17.80;40.80;;;;;;5095406;28;20209;-15
2022/03/11 11:33:48;;;;;;;11.50;9.20;;;17.80;40.90;;;;;;5097358;28;20171;-20
2022/03/11 11:36:33;;;;;;;11.33;8.90;;;17.80;40.80;;;;;;5096905;28;20239;-17
2022/03/11 11:39:11;;;;;;;13.57;9.47;;;17.80;40.90;;;;;;5095955;28;20185;-18
2022/03/11 11:41:37;;;;;;;13.33;9.03;;;17.80;40.90;;;;;;5096726;28;20274;-19
2022/03/11 11:44:08;;;;;;;11.47;8.27;;;17.80;40.90;;;;;;5081143;28;20258;-18
2022/03/11 11:46:37;;;;;;;13.17;8.50;;;17.80;41.00;;;;;;5075456;28;20178;-20
2022/03/11 11:49:04;;;;;;;10.43;7.90;;;17.80;41.10;;;;;;5076923;28;20573;-17
2022/03/11 11:51:36;;;;;;;11.10;8.23;;;17.70;41.20;;;;;;5074707;28;20202;-20
2022/03/11 11:54:11;;;;;;;10.37;7.93;;;17.70;41.10;;;;;;5075441;28;20186;-18
2022/03/11 11:56:52;;;;;;;11.67;8.37;;;17.70;41.20;;;;;;5075059;28;20184;-19
2022/03/11 11:59:26;;;;;;;10.40;8.30;;;17.70;41.30;;;;;;5075961;28;20274;-17
2022/03/11 12:01:57;;;;;;;9.00;7.37;;;17.70;41.30;;;;;;5074942;28;20207;-19
2022/03/11 12:04:39;;;;;;;10.43;7.87;;;17.70;41.20;;;;;;5075117;28;20176;-15
2022/03/11 12:07:14;;;;;;;11.30;7.40;;;17.70;41.10;;;;;;5074553;28;20179;-17
2022/03/11 12:09:39;;;;;;;8.57;7.27;;;17.70;41.10;;;;;;5074909;28;20179;-18
2022/03/11 12:12:06;;;;;;;9.90;7.27;;;17.70;41.10;;;;;;5075335;28;20530;-17
2022/03/11 12:14:33;;;;;;;10.83;7.90;;;17.70;41.10;;;;;;5075291;28;20178;-17
2022/03/11 12:17:07;;;;;;;11.17;7.50;;;17.70;41.20;;;;;;5073978;28;20195;-19
2022/03/11 12:19:44;;;;;;;10.23;6.80;;;17.70;41.20;;;;;;5075160;28;20179;-18
2022/03/11 12:22:31;;;;;;;10.63;6.87;;;17.70;41.30;;;;;;5075425;28;20170;-19
2022/03/11 12:25:05;;;;;;;9.53;6.83;;;17.70;41.30;;;;;;5075286;28;20160;-18
2022/03/11 12:27:59;;;;;;;8.43;6.47;;;17.70;41.30;;;;;;5070223;28;20195;-18
2022/03/11 12:30:38;;;;;;;7.10;6.30;;;17.70;41.40;;;;;;5065947;28;20206;-19
2022/03/11 12:33:21;;;;;;;8.27;6.43;;;17.70;41.50;;;;;;5067439;28;20173;-19
2022/03/11 12:35:50;;;;;;;8.70;6.87;;;17.70;41.60;;;;;;5067318;28;20232;-19
2022/03/11 12:38:21;;;;;;;10.83;6.90;;;17.70;41.60;;;;;;5067083;28;20464;-16
2022/03/11 12:40:48;;;;;;;7.17;6.20;;;17.70;41.60;;;;;;5066593;28;20198;-20
2022/03/11 12:43:16;;;;;;;8.53;6.63;;;17.70;41.60;;;;;;5066077;28;20175;-18
2022/03/11 12:45:51;;;;;;;10.53;6.30;;;17.70;41.70;;;;;;5067392;28;20298;-18
2022/03/11 12:48:18;;;;;;;9.87;6.00;;;17.70;41.60;;;;;;5066595;28;20172;-15